Time;durP1;ratioP1;P1;durP2;ratioP2;P2;SDS_P1;SDS_P2;PMS_P1;PMS_P2;Temp;Humidity;BMP_temperature;BMP_pressure;BME280_temperature;BME280_humidity;BME280_pressure;Samples;Min_cycle;Max_cycle;Signal;HPM_P1;HPM_P2
2023/08/13 00:01:54;;;;;;;9.20;3.50;;;;;;;22.09;48.99;100311.86;108047;1254;59575;-70
2023/08/13 00:04:20;;;;;;;9.60;4.20;;;;;;;21.94;49.26;100310.89;108043;1254;59623;-68
2023/08/13 00:06:47;;;;;;;7.30;3.90;;;;;;;21.86;49.72;100307.99;108040;1254;60055;-67
2023/08/13 00:09:13;;;;;;;9.60;4.20;;;;;;;21.99;49.28;100308.17;108072;1254;59602;-68
2023/08/13 00:11:40;;;;;;;5.80;3.80;;;;;;;22.07;49.08;100307.55;108050;1253;72988;-68
2023/08/13 00:14:06;;;;;;;6.20;3.40;;;;;;;21.84;49.59;100307.60;108004;1254;70137;-68
2023/08/13 00:16:33;;;;;;;8.00;3.30;;;;;;;21.98;49.29;100308.26;108019;1254;72302;-68
2023/08/13 00:18:59;;;;;;;6.50;3.40;;;;;;;22.05;49.55;100308.92;108082;1254;61074;-67
2023/08/13 00:21:26;;;;;;;7.70;3.60;;;;;;;21.86;49.88;100309.38;108051;1254;60309;-68
2023/08/13 00:23:53;;;;;;;8.80;4.10;;;;;;;22.20;49.38;100309.19;108032;1254;59727;-65
2023/08/13 00:26:19;;;;;;;7.60;3.30;;;;;;;22.41;49.02;100308.66;108047;1256;59542;-67
2023/08/13 00:28:46;;;;;;;8.40;3.70;;;;;;;22.38;48.63;100306.94;108039;1256;59506;-66
2023/08/13 00:31:12;;;;;;;11.80;4.70;;;;;;;22.30;49.09;100309.56;107858;1256;59730;-67
2023/08/13 00:33:38;;;;;;;4.30;3.30;;;;;;;22.06;49.43;100313.33;107974;1255;59637;-68
2023/08/13 00:36:06;;;;;;;7.50;3.70;;;;;;;22.11;49.33;100315.98;107945;1257;60167;-67
2023/08/13 00:38:32;;;;;;;5.90;3.70;;;;;;;22.15;49.35;100312.44;108012;1257;70458;-68
2023/08/13 00:40:59;;;;;;;5.40;3.60;;;;;;;22.10;49.43;100313.39;108003;1255;72516;-68
2023/08/13 00:43:25;;;;;;;8.80;3.70;;;;;;;22.20;49.27;100313.48;108019;1256;59600;-68
2023/08/13 00:45:52;;;;;;;10.00;3.20;;;;;;;22.13;49.80;100317.43;108034;1256;59804;-68
2023/08/13 00:48:19;;;;;;;10.80;4.10;;;;;;;21.98;49.85;100318.25;107902;1256;71551;-67
2023/08/13 00:50:46;;;;;;;7.50;3.50;;;;;;;21.96;50.47;100317.35;107924;1257;70153;-68
2023/08/13 00:53:12;;;;;;;9.70;4.20;;;;;;;21.87;50.10;100319.17;107823;1256;73051;-67
2023/08/13 00:55:39;;;;;;;8.50;3.80;;;;;;;21.99;50.12;100321.42;108046;1255;60896;-67
2023/08/13 00:58:06;;;;;;;5.40;3.30;;;;;;;22.07;50.18;100318.47;107901;1256;59503;-67
2023/08/13 01:00:32;;;;;;;6.90;3.70;;;;;;;21.85;50.35;100317.58;108024;1256;58459;-67
2023/08/13 01:02:59;;;;;;;8.60;3.60;;;;;;;21.79;50.66;100319.48;108021;1257;70126;-69
2023/08/13 01:05:43;;;;;;;7.00;4.00;;;;;;;21.84;50.39;100321.94;107999;1256;71616;-68
2023/08/13 01:08:14;;;;;;;8.00;3.80;;;;;;;22.06;49.97;100321.36;107779;1256;61988;-68
2023/08/13 01:10:41;;;;;;;6.20;3.50;;;;;;;22.30;49.52;100313.92;107841;1256;59493;-67
2023/08/13 01:13:14;;;;;;;7.00;3.90;;;;;;;22.33;49.18;100315.78;107893;1257;71551;-68
2023/08/13 01:15:43;;;;;;;8.90;3.90;;;;;;;22.41;49.19;100317.66;107997;1257;70106;-69
2023/08/13 01:18:10;;;;;;;8.70;3.80;;;;;;;22.43;49.32;100317.27;107870;1257;71721;-67
2023/08/13 01:20:41;;;;;;;9.30;4.10;;;;;;;22.38;49.12;100318.72;107992;1256;60180;-67
2023/08/13 01:23:08;;;;;;;10.00;3.60;;;;;;;22.24;49.89;100319.39;107919;1256;60520;-67
2023/08/13 01:25:37;;;;;;;9.00;3.80;;;;;;;22.16;49.84;100319.64;108225;1255;72732;-69
2023/08/13 01:28:17;;;;;;;13.20;4.20;;;;;;;22.14;49.83;100321.42;108234;1253;70132;-68
2023/08/13 01:31:06;;;;;;;8.00;3.20;;;;;;;22.12;50.23;100322.14;108176;1253;71403;-68
2023/08/13 01:33:34;;;;;;;6.30;3.90;;;;;;;22.04;50.00;100326.77;108153;1254;60529;-68
2023/08/13 01:36:04;;;;;;;5.50;4.20;;;;;;;21.86;50.41;100328.17;108086;1253;60534;-69
2023/08/13 01:38:31;;;;;;;5.20;3.70;;;;;;;21.95;50.61;100325.50;108305;1251;73037;-68
2023/08/13 01:41:00;;;;;;;7.50;4.30;;;;;;;21.74;50.87;100324.52;108203;1253;70143;-68
2023/08/13 01:43:26;;;;;;;6.00;3.50;;;;;;;21.65;51.42;100329.91;108317;1253;71228;-67
2023/08/13 01:45:53;;;;;;;9.50;3.90;;;;;;;21.71;51.21;100329.41;108340;1252;62024;-67
2023/08/13 01:48:20;;;;;;;12.50;4.10;;;;;;;21.77;51.02;100331.23;108314;1252;60067;-69
2023/08/13 01:50:46;;;;;;;10.20;3.80;;;;;;;21.88;51.24;100333.00;108286;1254;59502;-66
2023/08/13 01:53:13;;;;;;;8.40;4.10;;;;;;;21.84;50.92;100335.17;108335;1253;69056;-68
2023/08/13 01:55:40;;;;;;;4.30;3.60;;;;;;;21.82;51.00;100335.66;108316;1256;72665;-66
2023/08/13 01:58:07;;;;;;;9.80;4.00;;;;;;;21.96;50.83;100336.48;108275;1253;59672;-68
2023/08/13 02:00:34;;;;;;;8.90;4.20;;;;;;;21.76;51.06;100335.77;108159;1253;60129;-70
2023/08/13 02:03:01;;;;;;;6.80;4.10;;;;;;;21.77;51.53;100335.69;108269;1254;72692;-68
2023/08/13 02:05:28;;;;;;;6.10;3.60;;;;;;;21.74;51.41;100340.64;108336;1254;70348;-68
2023/08/13 02:07:56;;;;;;;10.40;4.30;;;;;;;21.66;51.60;100344.30;108246;1254;72506;-68
2023/08/13 02:10:22;;;;;;;6.50;4.00;;;;;;;21.79;51.58;100341.45;108248;1253;62303;-69
2023/08/13 02:12:49;;;;;;;6.20;3.90;;;;;;;22.12;50.52;100344.11;108301;1252;60085;-68
2023/08/13 02:15:15;;;;;;;9.10;4.30;;;;;;;22.17;50.72;100340.35;108230;1253;73130;-68
2023/08/13 02:17:45;;;;;;;18.20;4.40;;;;;;;22.11;50.79;100342.29;108283;1253;71089;-68
2023/08/13 02:20:12;;;;;;;7.90;4.20;;;;;;;22.09;50.70;100344.24;108175;1253;72456;-68
2023/08/13 02:22:39;;;;;;;7.20;3.80;;;;;;;21.81;51.37;100347.53;108151;1252;60618;-68
2023/08/13 02:25:06;;;;;;;7.10;3.60;;;;;;;21.82;51.03;100347.29;108207;1254;60027;-67
2023/08/13 02:27:33;;;;;;;6.00;4.60;;;;;;;21.73;51.59;100349.83;108176;1253;73008;-66
2023/08/13 02:30:03;;;;;;;6.80;4.20;;;;;;;21.76;51.57;100347.07;108065;1257;70389;-67
2023/08/13 02:32:32;;;;;;;7.40;4.20;;;;;;;21.69;51.64;100354.27;108123;1253;72504;-66
2023/08/13 02:35:00;;;;;;;6.20;4.10;;;;;;;21.59;52.30;100355.41;108178;1254;60240;-67
2023/08/13 02:37:26;;;;;;;7.90;5.00;;;;;;;21.81;51.61;100349.54;108185;1254;59944;-67
2023/08/13 02:39:53;;;;;;;9.20;4.60;;;;;;;21.59;52.13;100354.29;108176;1254;72984;-68
2023/08/13 02:42:20;;;;;;;6.90;4.40;;;;;;;21.47;52.56;100358.27;108132;1254;69689;-68
2023/08/13 02:44:48;;;;;;;8.20;4.80;;;;;;;21.43;52.57;100350.73;108121;1253;72552;-66
2023/08/13 02:47:14;;;;;;;10.60;5.00;;;;;;;21.40;52.97;100349.88;108153;1254;59596;-68
2023/08/13 02:49:41;;;;;;;8.80;4.40;;;;;;;21.31;53.35;100348.64;108197;1253;59443;-67
2023/08/13 02:52:07;;;;;;;6.40;4.80;;;;;;;21.23;53.91;100352.12;108232;1254;59658;-69
2023/08/13 02:54:34;;;;;;;7.80;4.60;;;;;;;21.18;54.30;100354.50;108242;1252;59542;-70
2023/08/13 02:57:01;;;;;;;9.20;4.50;;;;;;;21.19;54.17;100356.15;108244;1254;72393;-67
2023/08/13 02:59:27;;;;;;;12.40;5.10;;;;;;;21.05;54.61;100358.32;108203;1254;61904;-68
2023/08/13 03:01:54;;;;;;;11.20;5.70;;;;;;;21.22;54.01;100357.06;108113;1253;60117;-67
2023/08/13 03:04:20;;;;;;;7.20;4.30;;;;;;;21.19;53.80;100360.43;108109;1253;59498;-67
2023/08/13 03:06:47;;;;;;;9.30;5.00;;;;;;;21.23;53.65;100361.91;108238;1253;70291;-68
2023/08/13 03:09:21;;;;;;;9.40;5.30;;;;;;;21.18;53.38;100363.19;108245;1254;71147;-68
2023/08/13 03:11:48;;;;;;;14.10;5.00;;;;;;;21.07;53.66;100362.59;108190;1254;60827;-68
2023/08/13 03:14:15;;;;;;;10.00;5.00;;;;;;;21.25;53.28;100366.39;108162;1254;60180;-68
2023/08/13 03:16:42;;;;;;;8.30;4.90;;;;;;;21.03;53.93;100367.96;108132;1252;73705;-66
2023/08/13 03:19:09;;;;;;;14.30;5.50;;;;;;;20.97;54.39;100368.98;108160;1253;70397;-68
2023/08/13 03:21:35;;;;;;;7.30;4.80;;;;;;;21.11;54.24;100372.10;108192;1253;60412;-68
2023/08/13 03:24:02;;;;;;;7.40;4.50;;;;;;;21.16;54.68;100372.61;108191;1256;60397;-69
2023/08/13 03:26:30;;;;;;;10.00;4.50;;;;;;;21.46;54.95;100372.30;108223;1254;60435;-68
2023/08/13 03:28:57;;;;;;;6.60;4.20;;;;;;;22.10;53.63;100375.25;108164;1254;72557;-68
2023/08/13 03:31:23;;;;;;;9.70;4.30;;;;;;;22.74;52.50;100369.60;108215;1254;60325;-68
2023/08/13 03:34:08;;;;;;;7.50;4.10;;;;;;;23.10;50.98;100368.55;108265;1255;72489;-67
2023/08/13 03:36:36;;;;;;;7.00;4.00;;;;;;;23.00;50.57;100368.52;108309;1253;61952;-69
2023/08/13 03:39:03;;;;;;;8.60;4.30;;;;;;;22.88;51.00;100374.38;108276;1254;59980;-68
2023/08/13 03:41:29;;;;;;;7.00;3.90;;;;;;;23.11;50.60;100371.54;108222;1254;73884;-68
2023/08/13 03:43:56;;;;;;;9.70;4.40;;;;;;;23.08;50.42;100374.48;108252;1254;60310;-68
2023/08/13 03:46:22;;;;;;;7.40;4.10;;;;;;;22.85;50.72;100376.61;108631;1256;72685;-69
2023/08/13 03:48:49;;;;;;;5.60;4.10;;;;;;;22.82;50.55;100380.76;108638;1254;60422;-69
2023/08/13 03:51:15;;;;;;;6.60;3.80;;;;;;;22.82;50.51;100385.22;108628;1252;60420;-68
2023/08/13 03:53:42;;;;;;;11.20;4.00;;;;;;;22.86;50.79;100381.70;108542;1254;72714;-67
2023/08/13 03:56:09;;;;;;;6.00;3.60;;;;;;;22.92;50.80;100381.52;108265;1253;68988;-68
2023/08/13 03:58:37;;;;;;;7.00;4.20;;;;;;;22.91;50.92;100380.21;108137;1253;71670;-66
2023/08/13 04:01:06;;;;;;;9.80;3.80;;;;;;;22.77;50.90;100385.63;108268;1253;61760;-67
2023/08/13 04:03:34;;;;;;;4.50;3.50;;;;;;;22.77;51.31;100389.79;108240;1254;60477;-68
2023/08/13 04:06:02;;;;;;;7.60;4.40;;;;;;;22.94;51.48;100389.96;108268;1253;73513;-68
2023/08/13 04:08:29;;;;;;;9.20;4.30;;;;;;;23.27;50.73;100390.06;108212;1253;70059;-67
2023/08/13 04:10:58;;;;;;;6.60;4.00;;;;;;;24.07;49.53;100393.92;108172;1252;72617;-68
2023/08/13 04:13:25;;;;;;;7.40;3.80;;;;;;;24.91;47.67;100388.14;108229;1253;62045;-67
2023/08/13 04:15:52;;;;;;;5.90;3.50;;;;;;;25.52;45.94;100389.19;108201;1253;60303;-69
2023/08/13 04:18:18;;;;;;;6.60;3.60;;;;;;;25.98;44.71;100390.61;108092;1251;74047;-67
2023/08/13 04:20:45;;;;;;;5.30;3.00;;;;;;;26.52;43.49;100388.79;108188;1253;70279;-68
2023/08/13 04:23:12;;;;;;;6.00;3.20;;;;;;;27.18;42.49;100388.49;108246;1254;71100;-68
2023/08/13 04:25:39;;;;;;;4.90;3.10;;;;;;;27.72;41.27;100392.33;108249;1256;61773;-68
2023/08/13 04:28:06;;;;;;;4.60;2.90;;;;;;;28.20;40.18;100389.73;108198;1253;60578;-69
2023/08/13 04:30:36;;;;;;;6.60;3.50;;;;;;;28.58;39.72;100390.13;108267;1254;73743;-68
2023/08/13 04:33:03;;;;;;;7.10;3.40;;;;;;;29.05;38.66;100388.23;108189;1254;70258;-69
2023/08/13 04:35:31;;;;;;;11.70;3.10;;;;;;;29.56;37.71;100388.58;108242;1254;72632;-69
2023/08/13 04:37:57;;;;;;;5.30;3.30;;;;;;;29.85;37.07;100385.74;108164;1256;60316;-69
2023/08/13 04:40:24;;;;;;;4.80;2.70;;;;;;;30.18;36.23;100391.64;108102;1256;60722;-69
2023/08/13 04:42:52;;;;;;;5.30;2.70;;;;;;;30.50;35.75;100389.61;108076;1253;73641;-69
2023/08/13 04:45:20;;;;;;;4.40;2.80;;;;;;;30.99;34.48;100391.16;108089;1252;70140;-68
2023/08/13 04:47:46;;;;;;;4.60;2.50;;;;;;;31.35;33.71;100383.52;108105;1254;73718;-69
2023/08/13 04:50:13;;;;;;;5.00;2.50;;;;;;;31.71;32.50;100386.45;108203;1254;60306;-69
2023/08/13 04:52:40;;;;;;;3.50;2.70;;;;;;;31.90;32.04;100385.10;108216;1253;60316;-69
2023/08/13 04:55:08;;;;;;;9.10;2.80;;;;;;;31.75;31.72;100389.42;108215;1254;73799;-69
2023/08/13 04:57:35;;;;;;;7.50;3.10;;;;;;;31.67;31.94;100390.08;108173;1254;70385;-68
2023/08/13 05:00:03;;;;;;;4.70;2.60;;;;;;;31.88;31.79;100389.89;108200;1254;72543;-69
2023/08/13 05:02:35;;;;;;;7.60;2.70;;;;;;;32.16;31.29;100394.21;108121;1254;60714;-69
2023/08/13 05:05:02;;;;;;;4.80;2.70;;;;;;;32.21;31.10;100393.90;108168;1252;60627;-69
2023/08/13 05:07:29;;;;;;;4.50;2.80;;;;;;;32.49;30.86;100389.56;108106;1254;72010;-68
2023/08/13 05:09:56;;;;;;;4.80;2.50;;;;;;;32.97;30.24;100387.10;108121;1254;70220;-68
2023/08/13 05:12:23;;;;;;;6.50;2.70;;;;;;;33.19;29.95;100387.84;107949;1254;64024;-67
2023/08/13 05:14:51;;;;;;;4.90;2.40;;;;;;;33.40;29.61;100388.66;108138;1254;60301;-69
2023/08/13 05:17:18;;;;;;;5.20;2.50;;;;;;;33.43;29.42;100388.84;108058;1253;60290;-68
2023/08/13 05:19:45;;;;;;;6.10;2.20;;;;;;;33.47;29.14;100391.81;108111;1257;65026;-70
2023/08/13 05:22:12;;;;;;;8.00;2.30;;;;;;;33.64;29.10;100394.41;108242;1256;70284;-68
2023/08/13 05:24:40;;;;;;;4.60;2.40;;;;;;;33.82;28.83;100397.33;108267;1253;73146;-69
2023/08/13 05:27:06;;;;;;;4.00;2.40;;;;;;;34.00;28.57;100397.14;108220;1253;60395;-69
2023/08/13 05:29:34;;;;;;;6.30;2.20;;;;;;;34.07;28.50;100397.42;108310;1252;60367;-69
2023/08/13 05:32:00;;;;;;;5.20;2.40;;;;;;;33.95;28.35;100396.46;108224;1256;63887;-70
2023/08/13 05:34:27;;;;;;;4.80;2.40;;;;;;;34.01;28.47;100394.86;108276;1254;61856;-70
2023/08/13 05:36:54;;;;;;;4.60;2.50;;;;;;;34.36;27.96;100400.05;108202;1254;64106;-69
2023/08/13 05:39:22;;;;;;;5.10;2.40;;;;;;;34.69;27.47;100400.77;108149;1254;59344;-69
2023/08/13 05:41:50;;;;;;;6.80;2.10;;;;;;;34.84;27.33;100394.52;108271;1253;60424;-69
2023/08/13 05:44:16;;;;;;;11.10;2.40;;;;;;;35.12;27.17;100395.59;108235;1252;65267;-68
2023/08/13 05:46:43;;;;;;;6.40;2.40;;;;;;;35.23;27.02;100397.11;108209;1257;62087;-68
2023/08/13 05:49:10;;;;;;;4.40;2.20;;;;;;;35.31;26.62;100396.14;108172;1254;63716;-69
2023/08/13 05:51:36;;;;;;;3.50;2.30;;;;;;;35.31;26.45;100395.95;108167;1254;60313;-69
2023/08/13 05:54:04;;;;;;;5.00;2.60;;;;;;;35.37;26.54;100396.45;108153;1254;60322;-69
2023/08/13 05:56:30;;;;;;;4.20;2.30;;;;;;;35.49;26.29;100395.88;108071;1254;65233;-69
2023/08/13 05:58:57;;;;;;;6.90;2.60;;;;;;;35.67;26.17;100394.63;108180;1253;64102;-70
2023/08/13 06:01:24;;;;;;;5.30;2.20;;;;;;;35.84;25.95;100397.70;108171;1254;64123;-70
2023/08/13 06:03:50;;;;;;;5.30;2.10;;;;;;;35.79;25.56;100399.42;108181;1252;60394;-70
2023/08/13 06:06:18;;;;;;;7.10;2.10;;;;;;;35.82;25.59;100399.45;108137;1254;60272;-69
2023/08/13 06:08:45;;;;;;;3.10;1.90;;;;;;;35.86;25.51;100399.98;108078;1253;65002;-70
2023/08/13 06:11:12;;;;;;;3.50;2.30;;;;;;;35.82;25.48;100400.67;108192;1254;60447;-71
2023/08/13 06:13:39;;;;;;;5.10;1.80;;;;;;;35.65;25.38;100399.77;108220;1254;63926;-70
2023/08/13 06:16:06;;;;;;;5.10;2.50;;;;;;;35.40;25.64;100403.48;108253;1254;59209;-70
2023/08/13 06:18:34;;;;;;;6.30;2.30;;;;;;;35.58;25.64;100404.14;108238;1254;60399;-69
2023/08/13 06:21:02;;;;;;;5.70;1.80;;;;;;;35.92;25.49;100401.35;108295;1254;64875;-70
2023/08/13 06:23:30;;;;;;;3.50;1.90;;;;;;;36.29;25.08;100404.15;108276;1253;61698;-70
2023/08/13 06:25:56;;;;;;;3.60;1.80;;;;;;;36.70;24.54;100410.38;108268;1251;63826;-68
2023/08/13 06:28:23;;;;;;;3.60;1.90;;;;;;;36.90;24.16;100404.91;108258;1251;59126;-69
2023/08/13 06:30:50;;;;;;;4.10;1.90;;;;;;;37.61;23.37;100400.35;108248;1251;60296;-69
2023/08/13 06:33:17;;;;;;;8.70;1.80;;;;;;;37.90;22.56;100401.95;108274;1251;65579;-70
2023/08/13 06:35:46;;;;;;;3.20;1.80;;;;;;;37.53;22.87;100398.88;108307;1251;62121;-69
2023/08/13 06:38:13;;;;;;;3.30;1.50;;;;;;;37.19;23.11;100401.54;108357;1251;63970;-70
2023/08/13 06:40:41;;;;;;;8.60;2.10;;;;;;;37.00;23.67;100401.14;108313;1251;60300;-69
2023/08/13 06:43:08;;;;;;;7.50;2.10;;;;;;;37.20;23.83;100404.77;108308;1251;60430;-70
2023/08/13 06:45:34;;;;;;;4.50;1.80;;;;;;;37.44;23.13;100401.13;108229;1255;65329;-71
2023/08/13 06:48:04;;;;;;;5.90;2.10;;;;;;;37.66;22.87;100400.61;108327;1251;63009;-69
2023/08/13 06:50:31;;;;;;;6.30;2.20;;;;;;;37.99;22.84;100400.23;108389;1251;62463;-71
2023/08/13 06:52:57;;;;;;;7.60;2.30;;;;;;;38.13;23.01;100396.64;108319;1251;60286;-69
2023/08/13 06:55:24;;;;;;;2.80;1.60;;;;;;;38.12;22.83;100400.17;108280;1251;60306;-70
2023/08/13 06:57:51;;;;;;;4.00;2.20;;;;;;;38.35;22.61;100400.54;108305;1251;64892;-70
2023/08/13 07:00:21;;;;;;;4.20;1.70;;;;;;;38.43;22.05;100405.98;108246;1251;60094;-72
2023/08/13 07:03:06;;;;;;;6.40;2.10;;;;;;;38.50;22.29;100405.96;108255;1251;64108;-71
2023/08/13 07:05:32;;;;;;;5.00;1.90;;;;;;;38.53;22.18;100405.85;108316;1251;59551;-70
2023/08/13 07:07:59;;;;;;;6.30;1.90;;;;;;;38.71;22.09;100406.46;108293;1251;60306;-71
2023/08/13 07:10:28;;;;;;;7.30;1.90;;;;;;;38.70;21.29;100406.32;108274;1251;64991;-70
2023/08/13 07:12:55;;;;;;;7.50;1.90;;;;;;;38.76;21.67;100402.52;108331;1251;61575;-69
2023/08/13 07:15:21;;;;;;;2.60;1.60;;;;;;;38.98;21.47;100400.91;108290;1251;62392;-70
2023/08/13 07:17:48;;;;;;;7.90;1.80;;;;;;;39.00;21.26;100403.16;108250;1251;60375;-71
2023/08/13 07:20:14;;;;;;;4.00;1.80;;;;;;;39.02;21.41;100403.05;108347;1251;60302;-71
2023/08/13 07:22:42;;;;;;;3.10;1.60;;;;;;;39.34;20.70;100402.04;108325;1250;65036;-72
2023/08/13 07:25:11;;;;;;;4.00;1.70;;;;;;;39.26;20.60;100402.46;108288;1256;61734;-70
2023/08/13 07:27:39;;;;;;;3.90;1.80;;;;;;;39.33;20.37;100408.36;108296;1254;63914;-71
2023/08/13 07:30:10;;;;;;;3.80;1.90;;;;;;;39.15;20.38;100405.21;108330;1252;60952;-70
2023/08/13 07:32:37;;;;;;;6.40;1.80;;;;;;;39.00;20.82;100402.58;108296;1252;60440;-70
2023/08/13 07:35:06;;;;;;;5.90;1.90;;;;;;;38.82;20.60;100404.60;108351;1252;63797;-69
2023/08/13 07:37:33;;;;;;;6.50;1.50;;;;;;;38.88;20.94;100408.20;108288;1254;61516;-70
2023/08/13 07:40:00;;;;;;;5.80;1.90;;;;;;;38.87;20.94;100408.42;108408;1253;62829;-70
2023/08/13 07:42:26;;;;;;;4.70;1.90;;;;;;;38.74;20.80;100403.73;108282;1256;59145;-70
2023/08/13 07:44:53;;;;;;;4.80;1.60;;;;;;;38.79;20.99;100403.80;108257;1252;60318;-70
2023/08/13 07:47:20;;;;;;;3.30;1.80;;;;;;;38.73;20.55;100403.42;108234;1254;60425;-70
2023/08/13 07:49:47;;;;;;;2.60;1.60;;;;;;;38.30;20.73;100397.77;108168;1254;61624;-70
2023/08/13 07:52:14;;;;;;;6.30;1.70;;;;;;;38.10;21.04;100401.29;108208;1254;63866;-70
2023/08/13 07:54:41;;;;;;;3.30;1.80;;;;;;;38.03;21.23;100401.66;108205;1252;60338;-71
2023/08/13 07:57:07;;;;;;;4.90;2.00;;;;;;;37.99;21.29;100398.38;108226;1254;59565;-70
2023/08/13 07:59:34;;;;;;;2.60;1.70;;;;;;;38.19;21.02;100394.20;108251;1254;65290;-70
2023/08/13 08:02:03;;;;;;;4.40;1.70;;;;;;;38.36;20.73;100399.34;108267;1254;61391;-70
2023/08/13 08:04:30;;;;;;;2.20;1.60;;;;;;;38.51;20.74;100402.64;108240;1254;64127;-71
2023/08/13 08:06:56;;;;;;;3.80;1.70;;;;;;;39.01;20.25;100402.22;108219;1254;60261;-73
2023/08/13 08:09:23;;;;;;;5.50;2.00;;;;;;;39.31;19.44;100402.50;108273;1253;60499;-70
2023/08/13 08:11:50;;;;;;;2.50;1.80;;;;;;;39.35;19.29;100402.19;108203;1256;65102;-70
2023/08/13 08:14:16;;;;;;;4.00;1.90;;;;;;;39.56;19.44;100397.33;108211;1256;61787;-71
2023/08/13 08:16:43;;;;;;;3.50;1.80;;;;;;;39.72;19.48;100389.95;108258;1254;60245;-71
2023/08/13 08:19:10;;;;;;;4.70;1.90;;;;;;;39.92;19.71;100389.21;108266;1256;59779;-71
2023/08/13 08:21:37;;;;;;;2.90;1.50;;;;;;;40.10;18.83;100392.58;108240;1253;60417;-70
2023/08/13 08:24:04;;;;;;;2.00;1.30;;;;;;;40.05;18.24;100394.12;108264;1254;65400;-70
2023/08/13 08:26:31;;;;;;;3.40;1.80;;;;;;;39.88;18.47;100392.61;108283;1251;61686;-70
2023/08/13 08:28:59;;;;;;;3.50;1.50;;;;;;;39.21;19.06;100393.61;108236;1251;64436;-71
2023/08/13 08:31:25;;;;;;;4.60;2.00;;;;;;;38.82;19.21;100388.70;108233;1251;61083;-70
2023/08/13 08:33:52;;;;;;;2.90;1.60;;;;;;;38.50;19.77;100390.77;108346;1251;58906;-71
2023/08/13 08:36:19;;;;;;;5.30;1.80;;;;;;;38.71;19.94;100389.39;108309;1252;59093;-70
2023/08/13 08:38:45;;;;;;;5.40;2.20;;;;;;;39.07;19.96;100384.75;108269;1251;61597;-71
2023/08/13 08:41:12;;;;;;;4.10;1.60;;;;;;;39.17;19.62;100384.15;108359;1251;63997;-70
2023/08/13 08:43:39;;;;;;;5.60;1.90;;;;;;;38.83;19.73;100390.30;108313;1251;60306;-70
2023/08/13 08:46:06;;;;;;;3.00;1.90;;;;;;;38.47;20.06;100392.89;108375;1251;60501;-70
2023/08/13 08:48:33;;;;;;;7.50;2.40;;;;;;;38.70;20.24;100391.65;108339;1255;66628;-70
2023/08/13 08:50:59;;;;;;;4.70;1.70;;;;;;;38.86;20.14;100383.95;108327;1251;60858;-71
2023/08/13 08:53:26;;;;;;;2.80;1.50;;;;;;;39.14;19.77;100386.75;108255;1251;60383;-71
2023/08/13 08:55:52;;;;;;;2.50;1.30;;;;;;;39.39;19.17;100389.23;108321;1251;59283;-70
2023/08/13 08:58:19;;;;;;;3.60;1.70;;;;;;;39.50;18.99;100390.45;108264;1256;59712;-71
2023/08/13 09:00:46;;;;;;;3.70;1.80;;;;;;;39.51;19.07;100389.76;108284;1253;64961;-71
2023/08/13 09:03:12;;;;;;;4.40;1.60;;;;;;;39.60;18.81;100385.67;108274;1251;61514;-70
2023/08/13 09:05:39;;;;;;;4.20;1.50;;;;;;;39.75;18.75;100379.59;108333;1253;60197;-71
2023/08/13 09:08:14;;;;;;;4.00;1.50;;;;;;;39.82;18.70;100380.36;108319;1252;59695;-70
2023/08/13 09:10:43;;;;;;;2.90;1.70;;;;;;;39.73;18.62;100381.41;108306;1251;60271;-71
2023/08/13 09:13:10;;;;;;;2.70;1.40;;;;;;;39.67;18.39;100391.15;108316;1251;65229;-70
2023/08/13 09:15:44;;;;;;;3.30;1.60;;;;;;;39.48;18.17;100393.77;108303;1255;60585;-70
2023/08/13 09:18:11;;;;;;;3.20;1.70;;;;;;;39.31;18.47;100391.23;108223;1251;62762;-70
2023/08/13 09:20:45;;;;;;;3.00;1.50;;;;;;;39.17;18.34;100389.06;108278;1251;60213;-71
2023/08/13 09:23:21;;;;;;;2.50;1.60;;;;;;;38.78;18.80;100389.66;108338;1255;60421;-71
2023/08/13 09:25:52;;;;;;;4.50;1.50;;;;;;;38.22;19.16;100386.76;108306;1255;65694;-70
2023/08/13 09:28:19;;;;;;;5.00;1.90;;;;;;;37.85;19.59;100384.58;108338;1254;61996;-71
2023/08/13 09:30:48;;;;;;;4.20;1.70;;;;;;;38.01;19.69;100387.11;108307;1254;64055;-70
2023/08/13 09:33:15;;;;;;;3.30;1.70;;;;;;;38.28;19.47;100387.85;108278;1253;61066;-70
2023/08/13 09:35:42;;;;;;;3.90;1.50;;;;;;;38.18;19.37;100386.16;108256;1252;60247;-69
2023/08/13 09:38:09;;;;;;;4.00;1.80;;;;;;;37.82;19.14;100386.77;108292;1254;65079;-71
2023/08/13 09:40:35;;;;;;;2.70;1.40;;;;;;;37.76;18.78;100386.30;108272;1254;60185;-71
2023/08/13 09:43:08;;;;;;;4.10;1.90;;;;;;;37.76;19.00;100386.13;108272;1256;60274;-70
2023/08/13 09:45:35;;;;;;;4.60;1.80;;;;;;;38.07;19.16;100385.00;108323;1254;59202;-72
2023/08/13 09:48:06;;;;;;;5.50;2.10;;;;;;;38.37;19.17;100387.69;108320;1252;60427;-70
2023/08/13 09:50:36;;;;;;;2.80;1.90;;;;;;;38.54;19.19;100388.67;108347;1256;65120;-71
2023/08/13 09:53:03;;;;;;;3.70;1.80;;;;;;;38.39;19.11;100382.50;108251;1256;60393;-70
2023/08/13 09:55:32;;;;;;;5.00;1.60;;;;;;;38.77;18.82;100373.75;108094;1259;63759;-70
2023/08/13 09:58:00;;;;;;;4.30;1.70;;;;;;;39.07;18.47;100379.24;108321;1254;60210;-70
2023/08/13 10:00:27;;;;;;;5.80;1.60;;;;;;;39.56;17.85;100379.50;108220;1254;60082;-70
2023/08/13 10:02:54;;;;;;;5.90;1.90;;;;;;;39.60;17.61;100379.80;108214;1254;65242;-72
2023/08/13 10:05:21;;;;;;;5.30;2.00;;;;;;;39.35;17.78;100384.00;108270;1256;60429;-70
2023/08/13 10:07:47;;;;;;;4.90;1.50;;;;;;;39.52;18.02;100381.56;108231;1255;64186;-71
2023/08/13 10:10:14;;;;;;;2.40;1.40;;;;;;;40.12;17.53;100375.51;108187;1255;59140;-71
2023/08/13 10:12:41;;;;;;;3.20;1.80;;;;;;;40.15;17.23;100378.38;108259;1254;59579;-71
2023/08/13 10:15:08;;;;;;;5.20;1.90;;;;;;;40.03;17.24;100379.47;108190;1256;60486;-71
2023/08/13 10:17:35;;;;;;;6.30;1.90;;;;;;;39.97;17.33;100377.30;108289;1257;61782;-70
2023/08/13 10:20:01;;;;;;;7.20;1.90;;;;;;;40.23;17.54;100374.45;108260;1254;62563;-70
2023/08/13 10:22:35;;;;;;;3.00;1.70;;;;;;;40.29;17.25;100380.80;108161;1253;60417;-70
2023/08/13 10:25:03;;;;;;;4.40;1.90;;;;;;;40.50;16.96;100377.34;108289;1251;60434;-71
2023/08/13 10:27:30;;;;;;;3.20;1.60;;;;;;;40.18;17.21;100375.58;108272;1253;65252;-70
2023/08/13 10:30:09;;;;;;;8.30;1.80;;;;;;;40.28;17.31;100379.73;108217;1251;61481;-70
2023/08/13 10:32:38;;;;;;;1.80;1.30;;;;;;;40.58;16.48;100380.74;108251;1256;64015;-70
2023/08/13 10:35:25;;;;;;;2.70;1.50;;;;;;;40.38;16.22;100380.60;108321;1251;60268;-70
2023/08/13 10:38:00;;;;;;;3.50;1.40;;;;;;;40.36;16.72;100377.86;108346;1256;60456;-70
2023/08/13 10:40:27;;;;;;;5.70;1.80;;;;;;;40.07;16.56;100369.56;108366;1251;65567;-70
2023/08/13 10:42:54;;;;;;;2.70;1.60;;;;;;;40.25;16.94;100367.83;108335;1251;60182;-70
2023/08/13 10:45:25;;;;;;;3.50;1.70;;;;;;;39.87;17.34;100371.13;108373;1251;63946;-70
2023/08/13 10:47:58;;;;;;;;;;;;;;;39.02;18.23;100374.98;108383;1256;60374;-69
2023/08/13 10:50:25;;;;;;;2.70;1.80;;;;;;;38.51;18.63;100386.77;108368;1251;60290;-70
2023/08/13 10:53:13;;;;;;;4.50;2.00;;;;;;;38.33;18.54;100386.02;108276;1251;63814;-70
2023/08/13 10:55:46;;;;;;;6.80;1.80;;;;;;;38.18;18.19;100385.84;108319;1251;60339;-70
2023/08/13 10:58:26;;;;;;;4.30;1.90;;;;;;;38.24;18.40;100384.06;108267;1255;63862;-70
2023/08/13 11:01:00;;;;;;;7.40;2.20;;;;;;;38.41;18.48;100387.29;108282;1251;59491;-70
2023/08/13 11:03:31;;;;;;;5.90;1.80;;;;;;;38.30;18.27;100383.27;108286;1251;60392;-71
2023/08/13 11:05:57;;;;;;;;;;;;;;;37.70;19.16;100376.71;108285;1251;65614;-69
2023/08/13 11:08:24;;;;;;;4.60;1.80;;;;;;;37.11;19.94;100382.45;108314;1251;60238;-70
2023/08/13 11:11:11;;;;;;;3.50;2.00;;;;;;;37.18;19.96;100387.19;108302;1251;62820;-70
2023/08/13 11:13:37;;;;;;;7.00;2.40;;;;;;;37.21;19.67;100387.71;108225;1251;60417;-70
2023/08/13 11:16:05;;;;;;;4.20;1.80;;;;;;;36.99;19.52;100385.64;108143;1257;262063;-70
2023/08/13 11:20:09;;;;;;;4.00;2.40;;;;;;;35.74;20.86;100383.77;105002;1295;600174;-70
2023/08/13 11:22:37;;;;;;;6.00;2.00;;;;;;;36.96;19.90;100379.64;107327;1265;59154;-70